Terminal Aerodrome Forecast
Issued by NWS Quad Cities IA IL

Home | Current Version | Previous Version | Text Only | Print | Product List | Glossary On
Versions: 1 2 3 4 5 6 7 8 9 10 11 12 13 14 15
000
FTUS43 KDVN 211125
TAFDBQ
TAF
KDBQ 211125Z 2112/2212 30012KT P6SM BKN100
     FM211500 32019G30KT P6SM SCT035
     FM212300 32012KT P6SM SKC
     FM220200 33008KT P6SM SKC=

USA.gov is the U.S. government's official web portal to all federal, state and local government web resources and services.